sensor_id;sensor_type;location;lat;lon;timestamp;temperature;humidity
17333;DHT22;8784;50.94667800;7.08448400;2022-09-24T00:00:48;14.30;99.90
17333;DHT22;8784;50.94667800;7.08448400;2022-09-24T00:03:18;14.20;99.90
17333;DHT22;8784;50.94667800;7.08448400;2022-09-24T00:05:47;14.20;99.90
17333;DHT22;8784;50.94667800;7.08448400;2022-09-24T00:08:15;14.20;99.90
17333;DHT22;8784;50.94667800;7.08448400;2022-09-24T00:10:44;14.30;99.90
17333;DHT22;8784;50.94667800;7.08448400;2022-09-24T00:13:13;14.40;99.90
17333;DHT22;8784;50.94667800;7.08448400;2022-09-24T00:15:42;14.50;99.90
17333;DHT22;8784;50.94667800;7.08448400;2022-09-24T00:18:10;14.50;99.90
17333;DHT22;8784;50.94667800;7.08448400;2022-09-24T00:20:37;14.60;99.90
17333;DHT22;8784;50.94667800;7.08448400;2022-09-24T00:23:07;14.60;99.90
17333;DHT22;8784;50.94667800;7.08448400;2022-09-24T00:25:39;14.60;99.90
17333;DHT22;8784;50.94667800;7.08448400;2022-09-24T00:28:23;14.60;99.90
17333;DHT22;8784;50.94667800;7.08448400;2022-09-24T00:30:50;14.60;99.90
17333;DHT22;8784;50.94667800;7.08448400;2022-09-24T00:33:17;14.70;99.90
17333;DHT22;8784;50.94667800;7.08448400;2022-09-24T00:35:45;14.60;99.90
17333;DHT22;8784;50.94667800;7.08448400;2022-09-24T00:38:14;14.60;99.90
17333;DHT22;8784;50.94667800;7.08448400;2022-09-24T00:40:41;14.60;99.90
17333;DHT22;8784;50.94667800;7.08448400;2022-09-24T00:43:22;14.60;99.90
17333;DHT22;8784;50.94667800;7.08448400;2022-09-24T00:45:50;14.60;99.90
17333;DHT22;8784;50.94667800;7.08448400;2022-09-24T00:48:18;14.50;99.90
17333;DHT22;8784;50.94667800;7.08448400;2022-09-24T00:50:46;14.50;99.90
17333;DHT22;8784;50.94667800;7.08448400;2022-09-24T00:53:18;14.60;99.90
17333;DHT22;8784;50.94667800;7.08448400;2022-09-24T00:55:49;14.60;99.90
17333;DHT22;8784;50.94667800;7.08448400;2022-09-24T00:58:17;14.70;99.90
17333;DHT22;8784;50.94667800;7.08448400;2022-09-24T01:00:44;14.70;99.90
17333;DHT22;8784;50.94667800;7.08448400;2022-09-24T01:03:15;14.60;99.90
17333;DHT22;8784;50.94667800;7.08448400;2022-09-24T01:05:43;14.60;99.90
17333;DHT22;8784;50.94667800;7.08448400;2022-09-24T01:08:11;14.50;99.90
17333;DHT22;8784;50.94667800;7.08448400;2022-09-24T01:11:03;14.40;99.90
17333;DHT22;8784;50.94667800;7.08448400;2022-09-24T01:13:54;14.30;99.90
17333;DHT22;8784;50.94667800;7.08448400;2022-09-24T01:16:31;14.30;99.90
17333;DHT22;8784;50.94667800;7.08448400;2022-09-24T01:19:07;14.30;99.90
17333;DHT22;8784;50.94667800;7.08448400;2022-09-24T01:21:40;14.30;99.90
17333;DHT22;8784;50.94667800;7.08448400;2022-09-24T01:24:36;14.20;99.90
17333;DHT22;8784;50.94667800;7.08448400;2022-09-24T01:27:13;14.20;99.90
17333;DHT22;8784;50.94667800;7.08448400;2022-09-24T01:30:02;14.20;99.90
17333;DHT22;8784;50.94667800;7.08448400;2022-09-24T01:32:33;14.10;99.90
17333;DHT22;8784;50.94667800;7.08448400;2022-09-24T01:35:08;14.10;99.90
17333;DHT22;8784;50.94667800;7.08448400;2022-09-24T01:37:40;14.10;99.90
17333;DHT22;8784;50.94667800;7.08448400;2022-09-24T01:40:09;14.00;99.90
17333;DHT22;8784;50.94667800;7.08448400;2022-09-24T01:42:42;14.00;99.90
17333;DHT22;8784;50.94667800;7.08448400;2022-09-24T01:45:13;14.00;99.90
17333;DHT22;8784;50.94667800;7.08448400;2022-09-24T01:47:42;14.00;99.90
17333;DHT22;8784;50.94667800;7.08448400;2022-09-24T01:50:12;14.00;99.90
17333;DHT22;8784;50.94667800;7.08448400;2022-09-24T01:52:43;13.90;99.90
17333;DHT22;8784;50.94667800;7.08448400;2022-09-24T01:55:15;13.90;99.90
17333;DHT22;8784;50.94667800;7.08448400;2022-09-24T01:57:47;13.80;99.90
17333;DHT22;8784;50.94667800;7.08448400;2022-09-24T02:00:18;13.80;99.90
17333;DHT22;8784;50.94667800;7.08448400;2022-09-24T02:02:49;14.00;99.90
17333;DHT22;8784;50.94667800;7.08448400;2022-09-24T02:05:24;13.80;99.90
17333;DHT22;8784;50.94667800;7.08448400;2022-09-24T02:08:00;13.80;99.90
17333;DHT22;8784;50.94667800;7.08448400;2022-09-24T02:10:31;13.90;99.90
17333;DHT22;8784;50.94667800;7.08448400;2022-09-24T02:13:04;13.90;99.90
17333;DHT22;8784;50.94667800;7.08448400;2022-09-24T02:15:37;14.00;99.90
17333;DHT22;8784;50.94667800;7.08448400;2022-09-24T02:18:08;14.00;99.90
17333;DHT22;8784;50.94667800;7.08448400;2022-09-24T02:20:37;14.10;99.90
17333;DHT22;8784;50.94667800;7.08448400;2022-09-24T02:23:07;14.10;99.90
17333;DHT22;8784;50.94667800;7.08448400;2022-09-24T02:25:40;14.20;99.90
17333;DHT22;8784;50.94667800;7.08448400;2022-09-24T02:28:08;14.20;99.90
17333;DHT22;8784;50.94667800;7.08448400;2022-09-24T02:30:42;14.30;99.90
17333;DHT22;8784;50.94667800;7.08448400;2022-09-24T02:33:10;14.30;99.90
17333;DHT22;8784;50.94667800;7.08448400;2022-09-24T02:35:52;14.30;99.90
17333;DHT22;8784;50.94667800;7.08448400;2022-09-24T02:38:19;14.00;99.90
17333;DHT22;8784;50.94667800;7.08448400;2022-09-24T02:40:46;13.90;99.90
17333;DHT22;8784;50.94667800;7.08448400;2022-09-24T02:43:14;13.80;99.90
17333;DHT22;8784;50.94667800;7.08448400;2022-09-24T02:45:42;13.70;99.90
17333;DHT22;8784;50.94667800;7.08448400;2022-09-24T02:48:09;13.80;99.90
17333;DHT22;8784;50.94667800;7.08448400;2022-09-24T02:50:36;13.90;99.90
17333;DHT22;8784;50.94667800;7.08448400;2022-09-24T02:53:03;13.90;99.90
17333;DHT22;8784;50.94667800;7.08448400;2022-09-24T02:55:30;14.00;99.90
17333;DHT22;8784;50.94667800;7.08448400;2022-09-24T02:57:57;14.00;99.90
17333;DHT22;8784;50.94667800;7.08448400;2022-09-24T03:00:24;14.00;99.90
17333;DHT22;8784;50.94667800;7.08448400;2022-09-24T03:02:53;14.00;99.90
17333;DHT22;8784;50.94667800;7.08448400;2022-09-24T03:05:19;13.90;99.90
17333;DHT22;8784;50.94667800;7.08448400;2022-09-24T03:07:46;13.80;99.90
17333;DHT22;8784;50.94667800;7.08448400;2022-09-24T03:10:14;13.80;99.90
17333;DHT22;8784;50.94667800;7.08448400;2022-09-24T03:12:41;13.80;99.90
17333;DHT22;8784;50.94667800;7.08448400;2022-09-24T03:15:09;13.70;99.90
17333;DHT22;8784;50.94667800;7.08448400;2022-09-24T03:17:36;13.70;99.90
17333;DHT22;8784;50.94667800;7.08448400;2022-09-24T03:20:05;13.60;99.90
17333;DHT22;8784;50.94667800;7.08448400;2022-09-24T03:22:32;13.50;99.90
17333;DHT22;8784;50.94667800;7.08448400;2022-09-24T03:24:59;13.50;99.90
17333;DHT22;8784;50.94667800;7.08448400;2022-09-24T03:27:27;13.50;99.90
17333;DHT22;8784;50.94667800;7.08448400;2022-09-24T03:29:54;13.40;99.90
17333;DHT22;8784;50.94667800;7.08448400;2022-09-24T03:32:38;13.40;99.90
17333;DHT22;8784;50.94667800;7.08448400;2022-09-24T03:35:07;13.30;99.90
17333;DHT22;8784;50.94667800;7.08448400;2022-09-24T03:37:35;13.30;99.90
17333;DHT22;8784;50.94667800;7.08448400;2022-09-24T03:40:03;13.30;99.90
17333;DHT22;8784;50.94667800;7.08448400;2022-09-24T03:42:31;13.30;99.90
17333;DHT22;8784;50.94667800;7.08448400;2022-09-24T03:44:59;13.30;99.90
17333;DHT22;8784;50.94667800;7.08448400;2022-09-24T03:47:26;13.30;99.90
17333;DHT22;8784;50.94667800;7.08448400;2022-09-24T03:49:53;13.20;99.90
17333;DHT22;8784;50.94667800;7.08448400;2022-09-24T03:52:21;13.20;99.90
17333;DHT22;8784;50.94667800;7.08448400;2022-09-24T03:54:48;13.20;99.90
17333;DHT22;8784;50.94667800;7.08448400;2022-09-24T03:57:16;13.20;99.90
17333;DHT22;8784;50.94667800;7.08448400;2022-09-24T03:59:43;13.20;99.90
17333;DHT22;8784;50.94667800;7.08448400;2022-09-24T04:02:11;13.10;99.90
17333;DHT22;8784;50.94667800;7.08448400;2022-09-24T04:04:39;13.00;99.90
17333;DHT22;8784;50.94667800;7.08448400;2022-09-24T04:07:06;13.00;99.90
17333;DHT22;8784;50.94667800;7.08448400;2022-09-24T04:09:34;13.00;99.90
17333;DHT22;8784;50.94667800;7.08448400;2022-09-24T04:12:01;13.10;99.90
17333;DHT22;8784;50.94667800;7.08448400;2022-09-24T04:14:28;12.90;99.90
17333;DHT22;8784;50.94667800;7.08448400;2022-09-24T04:16:55;12.80;99.90
17333;DHT22;8784;50.94667800;7.08448400;2022-09-24T04:19:23;12.80;99.90
17333;DHT22;8784;50.94667800;7.08448400;2022-09-24T04:21:51;12.80;99.90
17333;DHT22;8784;50.94667800;7.08448400;2022-09-24T04:24:18;12.80;99.90
17333;DHT22;8784;50.94667800;7.08448400;2022-09-24T04:26:47;12.90;99.90
17333;DHT22;8784;50.94667800;7.08448400;2022-09-24T04:29:15;12.80;99.90
17333;DHT22;8784;50.94667800;7.08448400;2022-09-24T04:31:41;12.90;99.90
17333;DHT22;8784;50.94667800;7.08448400;2022-09-24T04:34:09;13.00;99.90
17333;DHT22;8784;50.94667800;7.08448400;2022-09-24T04:36:36;13.10;99.90
17333;DHT22;8784;50.94667800;7.08448400;2022-09-24T04:39:03;13.20;99.90
17333;DHT22;8784;50.94667800;7.08448400;2022-09-24T04:41:30;13.40;99.90
17333;DHT22;8784;50.94667800;7.08448400;2022-09-24T04:44:01;13.50;99.90
17333;DHT22;8784;50.94667800;7.08448400;2022-09-24T04:46:30;13.50;99.90
17333;DHT22;8784;50.94667800;7.08448400;2022-09-24T04:48:58;13.60;99.90
17333;DHT22;8784;50.94667800;7.08448400;2022-09-24T04:51:26;13.70;99.90
17333;DHT22;8784;50.94667800;7.08448400;2022-09-24T04:53:53;13.80;99.90
17333;DHT22;8784;50.94667800;7.08448400;2022-09-24T04:56:20;13.90;99.90
17333;DHT22;8784;50.94667800;7.08448400;2022-09-24T04:58:49;13.90;99.90
17333;DHT22;8784;50.94667800;7.08448400;2022-09-24T05:01:19;14.00;99.90
17333;DHT22;8784;50.94667800;7.08448400;2022-09-24T05:03:46;13.90;99.90
17333;DHT22;8784;50.94667800;7.08448400;2022-09-24T05:06:13;13.80;99.90
17333;DHT22;8784;50.94667800;7.08448400;2022-09-24T05:08:40;13.80;99.90
17333;DHT22;8784;50.94667800;7.08448400;2022-09-24T05:11:07;13.70;99.90
17333;DHT22;8784;50.94667800;7.08448400;2022-09-24T05:13:33;13.60;99.90
17333;DHT22;8784;50.94667800;7.08448400;2022-09-24T05:16:01;13.60;99.90
17333;DHT22;8784;50.94667800;7.08448400;2022-09-24T05:18:30;13.50;99.90
17333;DHT22;8784;50.94667800;7.08448400;2022-09-24T05:20:57;13.50;99.90
17333;DHT22;8784;50.94667800;7.08448400;2022-09-24T05:23:24;13.40;99.90
17333;DHT22;8784;50.94667800;7.08448400;2022-09-24T05:25:51;13.40;99.90
17333;DHT22;8784;50.94667800;7.08448400;2022-09-24T05:28:35;13.30;99.90
17333;DHT22;8784;50.94667800;7.08448400;2022-09-24T05:31:05;13.30;99.90
17333;DHT22;8784;50.94667800;7.08448400;2022-09-24T05:33:35;13.40;99.90
17333;DHT22;8784;50.94667800;7.08448400;2022-09-24T05:36:02;13.40;99.90
17333;DHT22;8784;50.94667800;7.08448400;2022-09-24T05:38:29;13.40;99.90
17333;DHT22;8784;50.94667800;7.08448400;2022-09-24T05:40:57;13.40;99.90
17333;DHT22;8784;50.94667800;7.08448400;2022-09-24T05:43:24;13.30;99.90
17333;DHT22;8784;50.94667800;7.08448400;2022-09-24T05:45:52;13.40;99.90
17333;DHT22;8784;50.94667800;7.08448400;2022-09-24T05:48:19;13.30;99.90
17333;DHT22;8784;50.94667800;7.08448400;2022-09-24T05:50:48;13.30;99.90
17333;DHT22;8784;50.94667800;7.08448400;2022-09-24T05:53:20;13.30;99.90
17333;DHT22;8784;50.94667800;7.08448400;2022-09-24T05:55:47;13.30;99.90
17333;DHT22;8784;50.94667800;7.08448400;2022-09-24T05:58:14;13.40;99.90
17333;DHT22;8784;50.94667800;7.08448400;2022-09-24T06:00:41;13.40;99.90
17333;DHT22;8784;50.94667800;7.08448400;2022-09-24T06:03:11;13.40;99.90
17333;DHT22;8784;50.94667800;7.08448400;2022-09-24T06:05:43;13.40;99.90
17333;DHT22;8784;50.94667800;7.08448400;2022-09-24T06:08:13;13.40;99.90
17333;DHT22;8784;50.94667800;7.08448400;2022-09-24T06:10:41;13.60;99.90
17333;DHT22;8784;50.94667800;7.08448400;2022-09-24T06:13:08;13.60;99.90
17333;DHT22;8784;50.94667800;7.08448400;2022-09-24T06:15:36;13.70;99.90
17333;DHT22;8784;50.94667800;7.08448400;2022-09-24T06:18:03;13.80;99.90
17333;DHT22;8784;50.94667800;7.08448400;2022-09-24T06:20:31;13.80;99.90
17333;DHT22;8784;50.94667800;7.08448400;2022-09-24T06:22:58;13.80;99.90
17333;DHT22;8784;50.94667800;7.08448400;2022-09-24T06:25:28;13.70;99.90
17333;DHT22;8784;50.94667800;7.08448400;2022-09-24T06:27:56;13.70;99.90
17333;DHT22;8784;50.94667800;7.08448400;2022-09-24T06:30:25;13.80;99.90
17333;DHT22;8784;50.94667800;7.08448400;2022-09-24T06:32:53;13.90;99.90
17333;DHT22;8784;50.94667800;7.08448400;2022-09-24T06:35:20;13.90;99.90
17333;DHT22;8784;50.94667800;7.08448400;2022-09-24T06:37:47;13.90;99.90
17333;DHT22;8784;50.94667800;7.08448400;2022-09-24T06:40:15;14.00;99.90
17333;DHT22;8784;50.94667800;7.08448400;2022-09-24T06:42:43;14.10;99.90
17333;DHT22;8784;50.94667800;7.08448400;2022-09-24T06:45:11;14.10;99.90
17333;DHT22;8784;50.94667800;7.08448400;2022-09-24T06:47:38;14.20;99.90
17333;DHT22;8784;50.94667800;7.08448400;2022-09-24T06:50:07;14.20;99.90
17333;DHT22;8784;50.94667800;7.08448400;2022-09-24T06:52:37;14.30;99.90
17333;DHT22;8784;50.94667800;7.08448400;2022-09-24T06:55:05;14.00;99.90
17333;DHT22;8784;50.94667800;7.08448400;2022-09-24T06:57:32;14.20;99.90
17333;DHT22;8784;50.94667800;7.08448400;2022-09-24T07:00:00;14.20;99.90
17333;DHT22;8784;50.94667800;7.08448400;2022-09-24T07:02:28;14.10;99.90
17333;DHT22;8784;50.94667800;7.08448400;2022-09-24T07:04:55;14.10;99.90
17333;DHT22;8784;50.94667800;7.08448400;2022-09-24T07:07:22;14.10;99.90
17333;DHT22;8784;50.94667800;7.08448400;2022-09-24T07:09:57;14.00;99.90
17333;DHT22;8784;50.94667800;7.08448400;2022-09-24T07:12:24;14.00;99.90
17333;DHT22;8784;50.94667800;7.08448400;2022-09-24T07:14:51;14.10;99.90
17333;DHT22;8784;50.94667800;7.08448400;2022-09-24T07:17:20;14.00;99.90
17333;DHT22;8784;50.94667800;7.08448400;2022-09-24T07:19:47;13.90;99.90
17333;DHT22;8784;50.94667800;7.08448400;2022-09-24T07:22:14;13.90;99.90
17333;DHT22;8784;50.94667800;7.08448400;2022-09-24T07:24:41;14.00;99.90
17333;DHT22;8784;50.94667800;7.08448400;2022-09-24T07:27:08;14.00;99.90
17333;DHT22;8784;50.94667800;7.08448400;2022-09-24T07:29:35;14.00;99.90
17333;DHT22;8784;50.94667800;7.08448400;2022-09-24T07:32:03;14.00;99.90
17333;DHT22;8784;50.94667800;7.08448400;2022-09-24T07:34:32;14.10;99.90
17333;DHT22;8784;50.94667800;7.08448400;2022-09-24T07:36:59;14.10;99.90
17333;DHT22;8784;50.94667800;7.08448400;2022-09-24T07:39:26;14.10;99.90
17333;DHT22;8784;50.94667800;7.08448400;2022-09-24T07:41:53;14.00;99.90
17333;DHT22;8784;50.94667800;7.08448400;2022-09-24T07:44:21;14.00;99.90
17333;DHT22;8784;50.94667800;7.08448400;2022-09-24T07:46:49;13.90;99.90
17333;DHT22;8784;50.94667800;7.08448400;2022-09-24T07:49:16;13.80;99.90
17333;DHT22;8784;50.94667800;7.08448400;2022-09-24T07:51:45;13.80;99.90
17333;DHT22;8784;50.94667800;7.08448400;2022-09-24T07:54:12;13.80;99.90
17333;DHT22;8784;50.94667800;7.08448400;2022-09-24T07:56:39;13.90;99.90
17333;DHT22;8784;50.94667800;7.08448400;2022-09-24T07:59:06;14.00;99.90
17333;DHT22;8784;50.94667800;7.08448400;2022-09-24T08:01:36;14.00;99.90
17333;DHT22;8784;50.94667800;7.08448400;2022-09-24T08:04:04;14.10;99.90
17333;DHT22;8784;50.94667800;7.08448400;2022-09-24T08:06:33;14.20;99.90
17333;DHT22;8784;50.94667800;7.08448400;2022-09-24T08:09:03;14.40;99.90
17333;DHT22;8784;50.94667800;7.08448400;2022-09-24T08:11:30;14.40;99.90
17333;DHT22;8784;50.94667800;7.08448400;2022-09-24T08:13:58;14.40;99.90
17333;DHT22;8784;50.94667800;7.08448400;2022-09-24T08:16:25;14.40;99.90
17333;DHT22;8784;50.94667800;7.08448400;2022-09-24T08:18:53;14.40;99.90
17333;DHT22;8784;50.94667800;7.08448400;2022-09-24T08:21:20;14.50;99.90
17333;DHT22;8784;50.94667800;7.08448400;2022-09-24T08:23:47;14.60;99.90
17333;DHT22;8784;50.94667800;7.08448400;2022-09-24T08:26:16;14.60;99.90
17333;DHT22;8784;50.94667800;7.08448400;2022-09-24T08:28:43;14.70;99.90
17333;DHT22;8784;50.94667800;7.08448400;2022-09-24T08:31:11;14.80;99.90
17333;DHT22;8784;50.94667800;7.08448400;2022-09-24T08:33:39;14.80;99.90
17333;DHT22;8784;50.94667800;7.08448400;2022-09-24T08:36:08;15.00;99.90
17333;DHT22;8784;50.94667800;7.08448400;2022-09-24T08:38:35;15.10;99.90
17333;DHT22;8784;50.94667800;7.08448400;2022-09-24T08:41:20;15.20;99.90
17333;DHT22;8784;50.94667800;7.08448400;2022-09-24T08:43:56;15.30;99.90
17333;DHT22;8784;50.94667800;7.08448400;2022-09-24T08:46:31;15.50;99.90
17333;DHT22;8784;50.94667800;7.08448400;2022-09-24T08:49:21;15.60;99.90
17333;DHT22;8784;50.94667800;7.08448400;2022-09-24T08:51:56;15.70;99.90
17333;DHT22;8784;50.94667800;7.08448400;2022-09-24T08:54:27;15.80;99.90
17333;DHT22;8784;50.94667800;7.08448400;2022-09-24T08:56:57;15.90;99.90
17333;DHT22;8784;50.94667800;7.08448400;2022-09-24T08:59:27;16.00;99.90
17333;DHT22;8784;50.94667800;7.08448400;2022-09-24T09:02:12;16.10;99.90
17333;DHT22;8784;50.94667800;7.08448400;2022-09-24T09:04:53;16.20;99.90
17333;DHT22;8784;50.94667800;7.08448400;2022-09-24T09:07:25;16.20;99.90
17333;DHT22;8784;50.94667800;7.08448400;2022-09-24T09:09:57;16.30;99.90
17333;DHT22;8784;50.94667800;7.08448400;2022-09-24T09:12:33;16.30;99.90
17333;DHT22;8784;50.94667800;7.08448400;2022-09-24T09:15:03;16.20;99.90
17333;DHT22;8784;50.94667800;7.08448400;2022-09-24T09:17:38;16.40;99.90
17333;DHT22;8784;50.94667800;7.08448400;2022-09-24T09:20:12;16.30;99.90
17333;DHT22;8784;50.94667800;7.08448400;2022-09-24T09:22:46;16.30;99.90
17333;DHT22;8784;50.94667800;7.08448400;2022-09-24T09:25:21;16.40;99.90
17333;DHT22;8784;50.94667800;7.08448400;2022-09-24T09:27:54;16.30;99.90
17333;DHT22;8784;50.94667800;7.08448400;2022-09-24T09:30:23;16.40;99.90
17333;DHT22;8784;50.94667800;7.08448400;2022-09-24T09:33:07;16.40;99.90
17333;DHT22;8784;50.94667800;7.08448400;2022-09-24T09:35:45;16.60;99.90
17333;DHT22;8784;50.94667800;7.08448400;2022-09-24T09:38:20;16.60;99.90
17333;DHT22;8784;50.94667800;7.08448400;2022-09-24T09:40:54;16.70;99.90
17333;DHT22;8784;50.94667800;7.08448400;2022-09-24T09:43:25;16.80;99.90
17333;DHT22;8784;50.94667800;7.08448400;2022-09-24T09:45:59;16.90;99.90
17333;DHT22;8784;50.94667800;7.08448400;2022-09-24T09:48:43;17.00;99.90
17333;DHT22;8784;50.94667800;7.08448400;2022-09-24T09:51:16;17.20;99.90
17333;DHT22;8784;50.94667800;7.08448400;2022-09-24T09:53:56;17.40;99.90
17333;DHT22;8784;50.94667800;7.08448400;2022-09-24T09:56:25;17.50;99.90
17333;DHT22;8784;50.94667800;7.08448400;2022-09-24T09:59:04;17.60;99.90
17333;DHT22;8784;50.94667800;7.08448400;2022-09-24T10:01:33;17.70;99.90
17333;DHT22;8784;50.94667800;7.08448400;2022-09-24T10:04:02;17.70;99.90
17333;DHT22;8784;50.94667800;7.08448400;2022-09-24T10:06:31;17.80;99.90
17333;DHT22;8784;50.94667800;7.08448400;2022-09-24T10:09:11;17.80;99.90
17333;DHT22;8784;50.94667800;7.08448400;2022-09-24T10:11:39;18.00;99.90
17333;DHT22;8784;50.94667800;7.08448400;2022-09-24T10:14:11;18.10;99.90
17333;DHT22;8784;50.94667800;7.08448400;2022-09-24T10:20:07;18.20;99.90
17333;DHT22;8784;50.94667800;7.08448400;2022-09-24T10:22:36;18.20;99.90
17333;DHT22;8784;50.94667800;7.08448400;2022-09-24T10:25:04;18.20;99.90
17333;DHT22;8784;50.94667800;7.08448400;2022-09-24T10:27:33;18.20;99.90
17333;DHT22;8784;50.94667800;7.08448400;2022-09-24T10:30:10;18.10;99.90
17333;DHT22;8784;50.94667800;7.08448400;2022-09-24T10:32:56;18.00;99.90
17333;DHT22;8784;50.94667800;7.08448400;2022-09-24T10:35:27;17.90;99.90
17333;DHT22;8784;50.94667800;7.08448400;2022-09-24T10:37:56;17.80;99.90
17333;DHT22;8784;50.94667800;7.08448400;2022-09-24T10:40:25;17.70;99.90
17333;DHT22;8784;50.94667800;7.08448400;2022-09-24T10:42:56;17.70;99.90
17333;DHT22;8784;50.94667800;7.08448400;2022-09-24T10:45:32;17.70;99.90
17333;DHT22;8784;50.94667800;7.08448400;2022-09-24T10:48:09;17.60;99.90
17333;DHT22;8784;50.94667800;7.08448400;2022-09-24T10:50:45;17.60;99.90
17333;DHT22;8784;50.94667800;7.08448400;2022-09-24T10:53:20;17.50;99.90
17333;DHT22;8784;50.94667800;7.08448400;2022-09-24T10:55:55;17.40;99.90
17333;DHT22;8784;50.94667800;7.08448400;2022-09-24T10:58:44;17.40;99.90
17333;DHT22;8784;50.94667800;7.08448400;2022-09-24T11:01:21;17.40;99.90
17333;DHT22;8784;50.94667800;7.08448400;2022-09-24T11:04:14;17.40;99.90
17333;DHT22;8784;50.94667800;7.08448400;2022-09-24T11:07:07;17.30;99.90
17333;DHT22;8784;50.94667800;7.08448400;2022-09-24T11:09:40;17.30;99.90
17333;DHT22;8784;50.94667800;7.08448400;2022-09-24T11:12:17;17.30;99.90
17333;DHT22;8784;50.94667800;7.08448400;2022-09-24T11:15:13;17.30;99.90
17333;DHT22;8784;50.94667800;7.08448400;2022-09-24T11:17:56;17.30;99.90
17333;DHT22;8784;50.94667800;7.08448400;2022-09-24T11:20:32;17.20;99.90
17333;DHT22;8784;50.94667800;7.08448400;2022-09-24T11:23:22;17.30;99.90
17333;DHT22;8784;50.94667800;7.08448400;2022-09-24T11:25:57;17.30;99.90
17333;DHT22;8784;50.94667800;7.08448400;2022-09-24T11:28:48;17.40;99.90
17333;DHT22;8784;50.94667800;7.08448400;2022-09-24T11:31:27;17.40;99.90
17333;DHT22;8784;50.94667800;7.08448400;2022-09-24T11:34:17;17.50;99.90
17333;DHT22;8784;50.94667800;7.08448400;2022-09-24T11:36:57;17.50;99.90
17333;DHT22;8784;50.94667800;7.08448400;2022-09-24T11:39:35;17.50;99.90
17333;DHT22;8784;50.94667800;7.08448400;2022-09-24T11:42:15;17.60;99.90
17333;DHT22;8784;50.94667800;7.08448400;2022-09-24T11:45:02;17.60;99.90
17333;DHT22;8784;50.94667800;7.08448400;2022-09-24T11:47:46;17.60;99.90
17333;DHT22;8784;50.94667800;7.08448400;2022-09-24T11:50:28;17.60;99.90
17333;DHT22;8784;50.94667800;7.08448400;2022-09-24T11:53:03;17.60;99.90
17333;DHT22;8784;50.94667800;7.08448400;2022-09-24T11:55:36;17.60;99.90
17333;DHT22;8784;50.94667800;7.08448400;2022-09-24T11:58:12;17.60;99.90
17333;DHT22;8784;50.94667800;7.08448400;2022-09-24T12:00:47;17.60;99.90
17333;DHT22;8784;50.94667800;7.08448400;2022-09-24T12:03:20;17.60;99.90
17333;DHT22;8784;50.94667800;7.08448400;2022-09-24T12:05:55;17.70;99.90
17333;DHT22;8784;50.94667800;7.08448400;2022-09-24T12:08:28;17.60;99.90
17333;DHT22;8784;50.94667800;7.08448400;2022-09-24T12:11:01;17.70;99.90
17333;DHT22;8784;50.94667800;7.08448400;2022-09-24T12:13:33;17.80;99.90
17333;DHT22;8784;50.94667800;7.08448400;2022-09-24T12:16:06;17.80;99.90
17333;DHT22;8784;50.94667800;7.08448400;2022-09-24T12:18:39;17.80;99.90
17333;DHT22;8784;50.94667800;7.08448400;2022-09-24T12:21:14;17.70;99.90
17333;DHT22;8784;50.94667800;7.08448400;2022-09-24T12:23:44;17.80;99.90
17333;DHT22;8784;50.94667800;7.08448400;2022-09-24T12:26:14;17.80;99.90
17333;DHT22;8784;50.94667800;7.08448400;2022-09-24T12:28:50;17.80;99.90
17333;DHT22;8784;50.94667800;7.08448400;2022-09-24T12:31:43;17.90;99.90
17333;DHT22;8784;50.94667800;7.08448400;2022-09-24T12:34:38;17.90;99.90
17333;DHT22;8784;50.94667800;7.08448400;2022-09-24T12:37:15;18.00;99.90
17333;DHT22;8784;50.94667800;7.08448400;2022-09-24T12:39:48;18.00;99.90
17333;DHT22;8784;50.94667800;7.08448400;2022-09-24T12:42:19;18.00;99.90
17333;DHT22;8784;50.94667800;7.08448400;2022-09-24T12:44:51;18.00;99.90
17333;DHT22;8784;50.94667800;7.08448400;2022-09-24T12:47:21;18.10;99.90
17333;DHT22;8784;50.94667800;7.08448400;2022-09-24T12:49:53;18.10;99.90
17333;DHT22;8784;50.94667800;7.08448400;2022-09-24T12:52:27;18.10;99.90
17333;DHT22;8784;50.94667800;7.08448400;2022-09-24T12:54:58;18.10;99.90
17333;DHT22;8784;50.94667800;7.08448400;2022-09-24T12:57:34;18.20;99.90
17333;DHT22;8784;50.94667800;7.08448400;2022-09-24T13:00:31;18.20;99.90
17333;DHT22;8784;50.94667800;7.08448400;2022-09-24T13:02:51;18.20;99.90
17333;DHT22;8784;50.94667800;7.08448400;2022-09-24T13:05:26;18.10;99.90
17333;DHT22;8784;50.94667800;7.08448400;2022-09-24T13:07:58;18.10;99.90
17333;DHT22;8784;50.94667800;7.08448400;2022-09-24T13:10:28;18.10;99.90
17333;DHT22;8784;50.94667800;7.08448400;2022-09-24T13:12:56;18.00;99.90
17333;DHT22;8784;50.94667800;7.08448400;2022-09-24T13:15:34;18.10;99.90
17333;DHT22;8784;50.94667800;7.08448400;2022-09-24T13:18:12;18.10;99.90
17333;DHT22;8784;50.94667800;7.08448400;2022-09-24T13:20:43;18.10;99.90
17333;DHT22;8784;50.94667800;7.08448400;2022-09-24T13:23:29;18.10;99.90
17333;DHT22;8784;50.94667800;7.08448400;2022-09-24T13:25:57;18.10;99.90
17333;DHT22;8784;50.94667800;7.08448400;2022-09-24T13:28:30;18.10;99.90
17333;DHT22;8784;50.94667800;7.08448400;2022-09-24T13:31:02;18.10;99.90
17333;DHT22;8784;50.94667800;7.08448400;2022-09-24T13:33:40;18.10;99.90
17333;DHT22;8784;50.94667800;7.08448400;2022-09-24T13:36:11;18.10;99.90
17333;DHT22;8784;50.94667800;7.08448400;2022-09-24T13:38:47;18.10;99.90
17333;DHT22;8784;50.94667800;7.08448400;2022-09-24T13:41:24;18.10;99.90
17333;DHT22;8784;50.94667800;7.08448400;2022-09-24T13:43:57;18.10;99.90
17333;DHT22;8784;50.94667800;7.08448400;2022-09-24T13:46:27;18.00;99.90
17333;DHT22;8784;50.94667800;7.08448400;2022-09-24T13:48:57;18.10;99.90
17333;DHT22;8784;50.94667800;7.08448400;2022-09-24T13:51:29;18.10;99.90
17333;DHT22;8784;50.94667800;7.08448400;2022-09-24T13:54:05;18.00;99.90
17333;DHT22;8784;50.94667800;7.08448400;2022-09-24T13:56:33;18.00;99.90
17333;DHT22;8784;50.94667800;7.08448400;2022-09-24T13:59:05;18.00;99.90
17333;DHT22;8784;50.94667800;7.08448400;2022-09-24T14:01:39;18.00;99.90